createdAt,value
2017-10-29T00:00:33.531Z,0
2017-10-29T00:01:42.930Z,0
2017-10-29T00:02:51.964Z,0
2017-10-29T00:04:01.268Z,0
2017-10-29T00:05:10.945Z,0
2017-10-29T00:06:19.602Z,0
2017-10-29T00:07:28.291Z,0
2017-10-29T00:08:37.954Z,0
2017-10-29T00:09:46.951Z,0
2017-10-29T00:10:56.311Z,0
2017-10-29T00:12:06.030Z,0
2017-10-29T00:13:15.113Z,0
2017-10-29T00:14:23.955Z,0
2017-10-29T00:15:32.960Z,0
2017-10-29T00:16:42.657Z,0
2017-10-29T00:17:51.587Z,0
2017-10-29T00:19:00.747Z,0
2017-10-29T00:20:10.057Z,0
2017-10-29T00:21:19.728Z,0
2017-10-29T00:22:28.736Z,0
2017-10-29T00:23:37.745Z,0
2017-10-29T00:24:47.057Z,0
2017-10-29T00:25:56.137Z,0
2017-10-29T00:27:05.124Z,0
2017-10-29T00:28:14.110Z,0
2017-10-29T00:29:22.774Z,0
2017-10-29T00:30:32.075Z,0
2017-10-29T00:31:41.885Z,0
2017-10-29T00:32:50.892Z,0
2017-10-29T00:34:00.246Z,0
2017-10-29T00:35:09.564Z,0
2017-10-29T00:36:18.573Z,0
2017-10-29T00:37:28.211Z,0
2017-10-29T00:38:37.013Z,0
2017-10-29T00:39:46.391Z,0
2017-10-29T00:40:55.359Z,0
2017-10-29T00:42:04.716Z,0
2017-10-29T00:43:14.193Z,0
2017-10-29T00:44:23.254Z,0
2017-10-29T00:45:33.591Z,0
2017-10-29T00:46:43.108Z,0
2017-10-29T00:47:52.555Z,0
2017-10-29T00:49:01.534Z,0
2017-10-29T00:50:10.828Z,0
2017-10-29T00:51:20.472Z,0
2017-10-29T00:52:31.046Z,0
2017-10-29T00:53:40.138Z,0
2017-10-29T00:54:49.010Z,0
2017-10-29T00:55:58.308Z,0
2017-10-29T00:57:07.976Z,0
2017-10-29T00:58:17.645Z,0
2017-10-29T00:59:26.626Z,0
2017-10-29T01:00:35.642Z,0
2017-10-29T01:01:44.652Z,0
2017-10-29T01:02:53.823Z,0
2017-10-29T01:04:03.225Z,0
2017-10-29T01:05:12.864Z,0
2017-10-29T01:06:21.519Z,0
2017-10-29T01:07:30.554Z,0
2017-10-29T01:08:39.543Z,0
2017-10-29T01:09:48.185Z,0
2017-10-29T01:10:57.897Z,0
2017-10-29T01:12:07.210Z,0
2017-10-29T01:13:16.202Z,0
2017-10-29T01:14:25.504Z,0
2017-10-29T01:15:34.918Z,0
2017-10-29T01:16:43.912Z,0
2017-10-29T01:17:52.896Z,0
2017-10-29T01:19:02.218Z,0
2017-10-29T01:20:11.194Z,0
2017-10-29T01:21:20.156Z,0
2017-10-29T01:22:29.141Z,0
2017-10-29T01:23:38.448Z,0
2017-10-29T01:24:47.434Z,0
2017-10-29T01:25:56.405Z,0
2017-10-29T01:27:05.404Z,0
2017-10-29T01:28:14.047Z,0
2017-10-29T01:29:23.335Z,0
2017-10-29T01:30:32.659Z,0
2017-10-29T01:31:41.976Z,0
2017-10-29T01:32:51.282Z,0
2017-10-29T01:33:59.957Z,0
2017-10-29T01:35:08.933Z,0
2017-10-29T01:36:18.251Z,0
2017-10-29T01:37:26.905Z,0
2017-10-29T01:38:36.222Z,0
2017-10-29T01:39:45.854Z,0
2017-10-29T01:40:54.820Z,0
2017-10-29T01:42:04.123Z,0
2017-10-29T01:43:13.423Z,0
2017-10-29T01:44:22.113Z,0
2017-10-29T01:45:31.408Z,0
2017-10-29T01:46:40.066Z,0
2017-10-29T01:47:48.715Z,0
2017-10-29T01:48:57.688Z,0
2017-10-29T01:50:06.661Z,0
2017-10-29T01:51:15.960Z,0
2017-10-29T01:52:24.606Z,0
2017-10-29T01:53:33.642Z,0
2017-10-29T01:54:42.607Z,0
2017-10-29T01:55:52.233Z,0
2017-10-29T01:57:00.874Z,0
2017-10-29T01:58:09.865Z,0
2017-10-29T01:59:19.171Z,0
2017-10-29T02:00:28.151Z,0
2017-10-29T02:01:36.797Z,0
2017-10-29T02:02:46.123Z,0
2017-10-29T02:03:55.092Z,0
2017-10-29T02:05:04.076Z,0
2017-10-29T02:06:13.064Z,0
2017-10-29T02:07:21.702Z,0
2017-10-29T02:08:31.005Z,0
2017-10-29T02:09:40.025Z,0
2017-10-29T02:10:49.346Z,0
2017-10-29T02:11:58.318Z,0
2017-10-29T02:13:07.627Z,0
2017-10-29T02:14:16.623Z,0
2017-10-29T02:15:25.276Z,0
2017-10-29T02:16:34.596Z,0
2017-10-29T02:17:43.948Z,0
2017-10-29T02:18:52.946Z,0
2017-10-29T02:20:01.607Z,0
2017-10-29T02:21:10.922Z,0
2017-10-29T02:22:19.907Z,0
2017-10-29T02:23:28.548Z,0
2017-10-29T02:24:38.308Z,0
2017-10-29T02:25:47.615Z,0
2017-10-29T02:26:57.283Z,0
2017-10-29T02:28:06.592Z,0
2017-10-29T02:29:15.588Z,0
2017-10-29T02:30:25.019Z,0
2017-10-29T02:31:33.997Z,0
2017-10-29T02:32:42.637Z,0
2017-10-29T02:33:51.675Z,0
2017-10-29T02:35:00.648Z,0
2017-10-29T02:36:09.290Z,0
2017-10-29T02:37:18.276Z,0
2017-10-29T02:38:27.280Z,0
2017-10-29T02:39:36.306Z,0
2017-10-29T02:40:46.292Z,0
2017-10-29T02:41:55.267Z,0
2017-10-29T02:43:03.937Z,0
2017-10-29T02:44:12.598Z,0
2017-10-29T02:45:22.248Z,0
2017-10-29T02:46:31.541Z,0
2017-10-29T02:47:40.556Z,0
2017-10-29T02:48:49.562Z,0
2017-10-29T02:49:58.889Z,0
2017-10-29T02:51:07.886Z,0
2017-10-29T02:52:16.544Z,0
2017-10-29T02:53:25.874Z,0
2017-10-29T02:54:35.531Z,0
2017-10-29T02:55:44.183Z,0
2017-10-29T02:56:53.829Z,0
2017-10-29T02:58:03.464Z,0
2017-10-29T02:59:12.134Z,0
2017-10-29T03:00:21.121Z,0
2017-10-29T03:01:29.784Z,0
2017-10-29T03:02:38.446Z,0
2017-10-29T03:03:47.432Z,0
2017-10-29T03:04:56.098Z,0
2017-10-29T03:06:05.406Z,0
2017-10-29T03:07:14.391Z,0
2017-10-29T03:08:24.017Z,0
2017-10-29T03:09:33.641Z,0
2017-10-29T03:10:42.618Z,0
2017-10-29T03:11:52.240Z,0
2017-10-29T03:13:00.888Z,0
2017-10-29T03:14:09.862Z,0
2017-10-29T03:15:18.833Z,0
2017-10-29T03:16:27.815Z,0
2017-10-29T03:17:36.797Z,0
2017-10-29T03:18:45.456Z,0
2017-10-29T03:19:55.104Z,0
2017-10-29T03:21:04.076Z,0
2017-10-29T03:22:13.056Z,0
2017-10-29T03:23:21.700Z,0
2017-10-29T03:24:31.020Z,0
2017-10-29T03:25:41.023Z,0
2017-10-29T03:26:50.333Z,0
2017-10-29T03:27:59.641Z,0
2017-10-29T03:29:08.954Z,0
2017-10-29T03:30:18.920Z,0
2017-10-29T03:31:27.906Z,0
2017-10-29T03:32:37.203Z,0
2017-10-29T03:33:46.183Z,0
2017-10-29T03:34:56.139Z,0
2017-10-29T03:36:05.119Z,0
2017-10-29T03:37:14.100Z,0
2017-10-29T03:38:23.733Z,0
2017-10-29T03:39:33.358Z,0
2017-10-29T03:40:42.356Z,0
2017-10-29T03:41:51.333Z,0
2017-10-29T03:42:59.985Z,0
2017-10-29T03:44:08.964Z,0
2017-10-29T03:45:18.367Z,0
2017-10-29T03:46:27.343Z,0
2017-10-29T03:47:36.005Z,0
2017-10-29T03:48:45.355Z,0
2017-10-29T03:49:54.669Z,0
2017-10-29T03:51:03.972Z,0
2017-10-29T03:52:12.949Z,0
2017-10-29T03:53:21.928Z,0
2017-10-29T03:54:30.578Z,0
2017-10-29T03:55:39.548Z,0
2017-10-29T03:56:48.966Z,0
2017-10-29T03:57:57.947Z,0
2017-10-29T03:59:06.936Z,0
2017-10-29T04:00:15.922Z,0
2017-10-29T04:01:25.236Z,0
2017-10-29T04:02:34.535Z,0
2017-10-29T04:03:43.191Z,0
2017-10-29T04:04:52.174Z,0
2017-10-29T04:06:01.802Z,0
2017-10-29T04:07:10.779Z,0
2017-10-29T04:08:19.832Z,0
2017-10-29T04:09:29.124Z,0
2017-10-29T04:10:37.783Z,0
2017-10-29T04:11:47.081Z,0
2017-10-29T04:12:57.356Z,0
2017-10-29T04:14:06.312Z,0
2017-10-29T04:15:14.975Z,0
2017-10-29T04:16:24.601Z,0
2017-10-29T04:17:33.272Z,0
2017-10-29T04:18:42.262Z,0
2017-10-29T04:19:51.986Z,0
2017-10-29T04:21:01.284Z,0
2017-10-29T04:22:09.919Z,0
2017-10-29T04:23:18.563Z,0
2017-10-29T04:24:27.869Z,0
2017-10-29T04:25:36.965Z,0
2017-10-29T04:26:45.957Z,0
2017-10-29T04:27:54.937Z,0
2017-10-29T04:29:03.920Z,0
2017-10-29T04:30:12.891Z,0
2017-10-29T04:31:21.876Z,0
2017-10-29T04:32:30.533Z,0
2017-10-29T04:33:40.150Z,0
2017-10-29T04:34:49.147Z,0
2017-10-29T04:35:57.794Z,0
2017-10-29T04:37:06.886Z,0
2017-10-29T04:38:15.538Z,0
2017-10-29T04:39:24.528Z,0
2017-10-29T04:40:33.191Z,0
2017-10-29T04:41:42.506Z,0
2017-10-29T04:42:51.482Z,0
2017-10-29T04:44:00.131Z,0
2017-10-29T04:45:08.784Z,0
2017-10-29T04:46:17.763Z,0
2017-10-29T04:47:27.065Z,0
2017-10-29T04:48:35.874Z,0
2017-10-29T04:49:45.179Z,0
2017-10-29T04:50:53.845Z,0
2017-10-29T04:52:02.826Z,0
2017-10-29T04:53:11.815Z,0
2017-10-29T04:54:21.107Z,0
2017-10-29T04:55:30.109Z,0
2017-10-29T04:56:39.418Z,0
2017-10-29T04:57:48.718Z,0
2017-10-29T04:58:57.715Z,0
2017-10-29T05:00:06.474Z,0
2017-10-29T05:01:15.783Z,0
2017-10-29T05:02:25.092Z,0
2017-10-29T05:03:34.405Z,0
2017-10-29T05:04:43.779Z,0
2017-10-29T05:05:52.759Z,0
2017-10-29T05:07:01.722Z,0
2017-10-29T05:08:10.696Z,0
2017-10-29T05:09:20.001Z,0
2017-10-29T05:10:28.984Z,0
2017-10-29T05:11:38.300Z,0
2017-10-29T05:12:46.960Z,0
2017-10-29T05:13:55.916Z,0
2017-10-29T05:15:04.554Z,0
2017-10-29T05:16:14.181Z,0
2017-10-29T05:17:23.177Z,0
2017-10-29T05:18:32.804Z,0
2017-10-29T05:19:41.777Z,0
2017-10-29T05:20:50.780Z,0
2017-10-29T05:21:59.754Z,0
2017-10-29T05:23:08.727Z,0
2017-10-29T05:24:18.037Z,0
2017-10-29T05:25:27.017Z,0
2017-10-29T05:26:36.066Z,0
2017-10-29T05:27:44.721Z,0
2017-10-29T05:28:54.085Z,0
2017-10-29T05:30:03.073Z,0
2017-10-29T05:31:11.786Z,0
2017-10-29T05:32:21.752Z,0
2017-10-29T05:33:31.049Z,0
2017-10-29T05:34:40.011Z,0
2017-10-29T05:35:48.974Z,0
2017-10-29T05:36:57.633Z,0
2017-10-29T05:38:06.286Z,0
2017-10-29T05:39:16.256Z,0
2017-10-29T05:40:25.911Z,0
2017-10-29T05:41:34.557Z,0
2017-10-29T05:42:44.209Z,0
2017-10-29T05:43:53.164Z,0
2017-10-29T05:45:01.803Z,0
2017-10-29T05:46:11.116Z,0
2017-10-29T05:47:20.124Z,0
2017-10-29T05:48:29.099Z,0
2017-10-29T05:49:37.753Z,0
2017-10-29T05:50:46.738Z,0
2017-10-29T05:51:55.840Z,0
2017-10-29T05:53:04.490Z,0
2017-10-29T05:54:13.459Z,0
2017-10-29T05:55:22.776Z,0
2017-10-29T05:56:32.400Z,0
2017-10-29T05:57:41.483Z,0
2017-10-29T05:58:50.808Z,0
2017-10-29T05:59:59.885Z,0
2017-10-29T06:01:09.188Z,0
2017-10-29T06:02:18.490Z,0
2017-10-29T06:03:27.460Z,0
2017-10-29T06:04:36.424Z,0
2017-10-29T06:05:46.076Z,0
2017-10-29T06:06:54.745Z,0
2017-10-29T06:08:04.045Z,0
2017-10-29T06:09:12.685Z,0
2017-10-29T06:10:21.983Z,0
2017-10-29T06:11:31.614Z,0
2017-10-29T06:12:40.603Z,0
2017-10-29T06:13:49.584Z,0
2017-10-29T06:14:58.879Z,0
2017-10-29T06:16:08.188Z,0
2017-10-29T06:17:18.155Z,0
2017-10-29T06:18:26.810Z,0
2017-10-29T06:19:35.470Z,0
2017-10-29T06:20:44.550Z,0
2017-10-29T06:21:53.221Z,0
2017-10-29T06:23:02.188Z,0
2017-10-29T06:24:11.168Z,0
2017-10-29T06:25:20.459Z,0
2017-10-29T06:26:29.862Z,0
2017-10-29T06:27:39.551Z,0
2017-10-29T06:28:48.521Z,0
2017-10-29T06:29:57.157Z,0
2017-10-29T06:31:06.453Z,0
2017-10-29T06:32:15.129Z,0
2017-10-29T06:33:24.416Z,0
2017-10-29T06:34:33.401Z,0
2017-10-29T06:35:42.709Z,0
2017-10-29T06:36:52.003Z,0
2017-10-29T06:38:00.653Z,0
2017-10-29T06:39:09.480Z,0
2017-10-29T06:40:18.700Z,0
2017-10-29T06:41:28.223Z,0
2017-10-29T06:42:37.451Z,0
2017-10-29T06:43:46.944Z,0
2017-10-29T06:44:56.258Z,0
2017-10-29T06:46:05.698Z,0
2017-10-29T06:47:15.387Z,5
2017-10-29T06:48:24.041Z,5
2017-10-29T06:49:33.179Z,5
2017-10-29T06:50:42.207Z,5
2017-10-29T06:51:50.875Z,5
2017-10-29T06:53:00.923Z,5
2017-10-29T06:54:10.658Z,5
2017-10-29T06:55:19.320Z,5
2017-10-29T06:56:29.033Z,5
2017-10-29T06:57:38.408Z,5
2017-10-29T06:58:47.709Z,5
2017-10-29T06:59:57.005Z,5
2017-10-29T07:01:06.442Z,5
2017-10-29T07:02:15.749Z,5
2017-10-29T07:03:24.743Z,5
2017-10-29T07:04:34.400Z,5
2017-10-29T07:05:43.059Z,5
2017-10-29T07:06:51.752Z,5
2017-10-29T07:08:00.401Z,5
2017-10-29T07:09:10.048Z,5
2017-10-29T07:10:19.394Z,5
2017-10-29T07:11:28.052Z,5
2017-10-29T07:12:37.024Z,5
2017-10-29T07:13:46.105Z,5
2017-10-29T07:14:55.308Z,5
2017-10-29T07:16:04.636Z,5
2017-10-29T07:17:13.560Z,10
2017-10-29T07:18:23.505Z,10
2017-10-29T07:19:32.183Z,5
2017-10-29T07:20:41.015Z,10
2017-10-29T07:21:50.222Z,10
2017-10-29T07:22:58.885Z,10
2017-10-29T07:24:08.636Z,10
2017-10-29T07:25:17.615Z,15
2017-10-29T07:26:26.613Z,10
2017-10-29T07:27:35.584Z,10
2017-10-29T07:28:44.587Z,10
2017-10-29T07:29:53.570Z,15
2017-10-29T07:31:02.548Z,15
2017-10-29T07:32:11.506Z,10
2017-10-29T07:33:20.195Z,10
2017-10-29T07:34:28.859Z,10
2017-10-29T07:35:37.858Z,15
2017-10-29T07:36:46.818Z,10
2017-10-29T07:37:55.489Z,10
2017-10-29T07:39:05.468Z,20
2017-10-29T07:40:14.108Z,15
2017-10-29T07:41:23.732Z,10
2017-10-29T07:42:33.357Z,10
2017-10-29T07:43:42.705Z,10
2017-10-29T07:44:51.668Z,15
2017-10-29T07:46:00.326Z,10
2017-10-29T07:47:09.296Z,10
2017-10-29T07:48:18.273Z,10
2017-10-29T07:49:27.247Z,10
2017-10-29T07:50:35.897Z,15
2017-10-29T07:51:45.541Z,15
2017-10-29T07:52:54.859Z,15
2017-10-29T07:54:03.836Z,15
2017-10-29T07:55:13.136Z,15
2017-10-29T07:56:22.116Z,15
2017-10-29T07:57:31.415Z,15
2017-10-29T07:58:40.094Z,15
2017-10-29T07:59:49.573Z,15
2017-10-29T08:00:58.547Z,15
2017-10-29T08:02:08.248Z,15
2017-10-29T08:03:17.791Z,15
2017-10-29T08:04:27.122Z,15
2017-10-29T08:05:35.790Z,15
2017-10-29T08:06:45.113Z,15
2017-10-29T08:07:53.761Z,15
2017-10-29T08:09:03.369Z,15
2017-10-29T08:10:12.699Z,15
2017-10-29T08:11:22.008Z,15
2017-10-29T08:12:30.994Z,15
2017-10-29T08:13:39.970Z,15
2017-10-29T08:14:49.525Z,15
2017-10-29T08:15:58.248Z,15
2017-10-29T08:17:06.892Z,15
2017-10-29T08:18:16.215Z,15
2017-10-29T08:19:24.922Z,15
2017-10-29T08:20:34.229Z,15
2017-10-29T08:21:43.193Z,15
2017-10-29T08:22:51.837Z,15
2017-10-29T08:24:00.843Z,15
2017-10-29T08:25:10.147Z,15
2017-10-29T08:26:18.787Z,15
2017-10-29T08:27:27.801Z,15
2017-10-29T08:28:37.270Z,15
2017-10-29T08:29:46.268Z,15
2017-10-29T08:30:55.592Z,15
2017-10-29T08:32:04.656Z,15
2017-10-29T08:33:13.958Z,15
2017-10-29T08:34:22.967Z,15
2017-10-29T08:35:31.675Z,15
2017-10-29T08:36:40.736Z,15
2017-10-29T08:37:49.411Z,15
2017-10-29T08:38:58.063Z,15
2017-10-29T08:40:07.096Z,15
2017-10-29T08:41:16.744Z,20
2017-10-29T08:42:25.735Z,20
2017-10-29T08:43:35.783Z,15
2017-10-29T08:44:44.672Z,15
2017-10-29T08:45:54.363Z,15
2017-10-29T08:47:03.688Z,15
2017-10-29T08:48:13.363Z,15
2017-10-29T08:49:22.417Z,15
2017-10-29T08:50:31.442Z,15
2017-10-29T08:51:40.900Z,15
2017-10-29T08:52:50.592Z,15
2017-10-29T08:53:59.904Z,15
2017-10-29T08:55:09.223Z,15
2017-10-29T08:56:18.364Z,15
2017-10-29T08:57:27.338Z,15
2017-10-29T08:58:36.654Z,15
2017-10-29T08:59:45.655Z,15
2017-10-29T09:00:55.024Z,15
2017-10-29T09:02:04.026Z,15
2017-10-29T09:03:12.710Z,20
2017-10-29T09:04:21.701Z,20
2017-10-29T09:05:31.065Z,25
2017-10-29T09:06:40.419Z,30
2017-10-29T09:07:49.098Z,30
2017-10-29T09:08:58.463Z,20
2017-10-29T09:10:07.821Z,20
2017-10-29T09:11:16.818Z,25
2017-10-29T09:12:26.474Z,30
2017-10-29T09:13:35.147Z,30
2017-10-29T09:14:43.834Z,30
2017-10-29T09:15:52.540Z,30
2017-10-29T09:17:02.220Z,30
2017-10-29T09:18:11.429Z,30
2017-10-29T09:19:20.515Z,30
2017-10-29T09:20:29.736Z,25
2017-10-29T09:21:39.291Z,25
2017-10-29T09:22:48.058Z,30
2017-10-29T09:23:57.392Z,35
2017-10-29T09:25:07.358Z,30
2017-10-29T09:26:16.418Z,30
2017-10-29T09:27:26.067Z,35
2017-10-29T09:28:34.730Z,35
2017-10-29T09:29:43.718Z,30
2017-10-29T09:30:53.357Z,25
2017-10-29T09:32:02.331Z,35
2017-10-29T09:33:11.059Z,40
2017-10-29T09:34:20.135Z,35
2017-10-29T09:35:29.788Z,30
2017-10-29T09:36:39.213Z,30
2017-10-29T09:37:47.868Z,30
2017-10-29T09:38:56.926Z,25
2017-10-29T09:40:07.352Z,25
2017-10-29T09:41:16.449Z,30
2017-10-29T09:42:26.803Z,30
2017-10-29T09:43:35.891Z,20
2017-10-29T09:44:45.363Z,20
2017-10-29T09:45:55.018Z,20
2017-10-29T09:47:03.677Z,20
2017-10-29T09:48:12.809Z,20
2017-10-29T09:49:21.445Z,20
2017-10-29T09:50:30.790Z,20
2017-10-29T09:51:39.803Z,25
2017-10-29T09:52:48.800Z,20
2017-10-29T09:53:57.485Z,25
2017-10-29T09:55:07.197Z,25
2017-10-29T09:56:16.227Z,25
2017-10-29T09:57:25.691Z,30
2017-10-29T09:58:36.711Z,30
2017-10-29T09:59:45.788Z,30
2017-10-29T10:00:55.118Z,25
2017-10-29T10:02:04.286Z,25
2017-10-29T10:03:13.625Z,25
2017-10-29T10:04:22.643Z,25
2017-10-29T10:05:31.942Z,20
2017-10-29T10:06:40.922Z,25
2017-10-29T10:07:49.593Z,25
2017-10-29T10:08:58.578Z,20
2017-10-29T10:10:07.226Z,15
2017-10-29T10:11:16.262Z,15
2017-10-29T10:12:24.955Z,15
2017-10-29T10:13:34.722Z,20
2017-10-29T10:14:43.396Z,20
2017-10-29T10:15:52.397Z,20
2017-10-29T10:17:01.717Z,15
2017-10-29T10:18:10.734Z,15
2017-10-29T10:19:19.408Z,15
2017-10-29T10:20:29.066Z,15
2017-10-29T10:21:37.764Z,15
2017-10-29T10:22:46.430Z,20
2017-10-29T10:23:55.419Z,15
2017-10-29T10:25:04.398Z,15
2017-10-29T10:26:13.727Z,15
2017-10-29T10:27:23.041Z,20
2017-10-29T10:28:32.066Z,20
2017-10-29T10:29:41.063Z,20
2017-10-29T10:30:50.061Z,25
2017-10-29T10:32:00.068Z,30
2017-10-29T10:33:09.118Z,20
2017-10-29T10:34:18.175Z,15
2017-10-29T10:35:28.200Z,15
2017-10-29T10:36:37.729Z,20
2017-10-29T10:37:46.709Z,25
2017-10-29T10:38:55.698Z,25
2017-10-29T10:40:05.088Z,20
2017-10-29T10:41:14.775Z,25
2017-10-29T10:42:23.530Z,30
2017-10-29T10:43:32.948Z,25
2017-10-29T10:44:41.977Z,35
2017-10-29T10:45:50.707Z,35
2017-10-29T10:46:59.370Z,35
2017-10-29T10:48:08.723Z,30
2017-10-29T10:49:17.392Z,25
2017-10-29T10:50:27.039Z,20
2017-10-29T10:51:36.027Z,25
2017-10-29T10:52:45.405Z,25
2017-10-29T10:53:54.383Z,25
2017-10-29T10:55:03.734Z,30
2017-10-29T10:56:13.038Z,30
2017-10-29T10:57:22.353Z,25
2017-10-29T10:58:31.657Z,30
2017-10-29T10:59:40.652Z,25
2017-10-29T11:00:49.682Z,25
2017-10-29T11:01:58.711Z,25
2017-10-29T11:03:08.028Z,20
2017-10-29T11:04:16.698Z,15
2017-10-29T11:05:25.998Z,15
2017-10-29T11:06:35.012Z,10
2017-10-29T11:07:44.315Z,15
2017-10-29T11:08:52.981Z,15
2017-10-29T11:10:02.013Z,10
2017-10-29T11:11:11.235Z,10
2017-10-29T11:12:20.561Z,5
2017-10-29T11:13:29.636Z,5
2017-10-29T11:14:38.638Z,10
2017-10-29T11:15:47.616Z,20
2017-10-29T11:16:56.633Z,20
2017-10-29T11:18:06.064Z,20
2017-10-29T11:19:14.837Z,15
2017-10-29T11:20:23.603Z,15
2017-10-29T11:21:32.324Z,15
2017-10-29T11:22:41.000Z,15
2017-10-29T11:23:49.655Z,15
2017-10-29T11:24:58.656Z,10
2017-10-29T11:26:07.310Z,15
2017-10-29T11:27:16.675Z,15
2017-10-29T11:28:25.422Z,15
2017-10-29T11:29:34.868Z,15
2017-10-29T11:30:44.210Z,20
2017-10-29T11:31:53.294Z,20
2017-10-29T11:33:02.710Z,30
2017-10-29T11:34:13.186Z,30
2017-10-29T11:35:21.966Z,15
2017-10-29T11:36:31.027Z,10
2017-10-29T11:37:40.419Z,10
2017-10-29T11:38:50.145Z,10
2017-10-29T11:39:58.938Z,5
2017-10-29T11:41:08.720Z,15
2017-10-29T11:42:17.776Z,25
2017-10-29T11:43:27.149Z,30
2017-10-29T11:44:36.171Z,30
2017-10-29T11:45:45.815Z,30
2017-10-29T11:46:55.310Z,30
2017-10-29T11:48:04.176Z,25
2017-10-29T11:49:14.158Z,25
2017-10-29T11:50:23.136Z,30
2017-10-29T11:51:32.127Z,25
2017-10-29T11:52:41.466Z,25
2017-10-29T11:53:50.784Z,20
2017-10-29T11:54:59.696Z,20
2017-10-29T11:56:08.677Z,20
2017-10-29T11:57:18.186Z,20
2017-10-29T11:58:27.210Z,20
2017-10-29T11:59:36.191Z,20
2017-10-29T12:00:45.340Z,20
2017-10-29T12:01:54.327Z,20
2017-10-29T12:03:03.347Z,15
2017-10-29T12:04:12.650Z,15
2017-10-29T12:05:21.967Z,15
2017-10-29T12:06:30.629Z,15
2017-10-29T12:07:39.617Z,15
2017-10-29T12:08:48.596Z,15
2017-10-29T12:09:57.917Z,15
2017-10-29T12:11:07.308Z,20
2017-10-29T12:12:17.092Z,15
2017-10-29T12:13:26.275Z,15
2017-10-29T12:14:35.589Z,15
2017-10-29T12:15:45.171Z,15
2017-10-29T12:16:54.422Z,15
2017-10-29T12:18:03.670Z,15
2017-10-29T12:19:12.422Z,15
2017-10-29T12:20:21.120Z,20
2017-10-29T12:21:30.440Z,25
2017-10-29T12:22:39.408Z,25
2017-10-29T12:23:48.501Z,25
2017-10-29T12:24:57.527Z,20
2017-10-29T12:26:07.168Z,20
2017-10-29T12:27:16.163Z,25
2017-10-29T12:28:25.167Z,25
2017-10-29T12:29:34.164Z,25
2017-10-29T12:30:43.886Z,25
2017-10-29T12:31:52.532Z,30
2017-10-29T12:33:01.176Z,25
2017-10-29T12:34:09.823Z,20
2017-10-29T12:35:19.133Z,15
2017-10-29T12:36:27.804Z,15
2017-10-29T12:37:37.456Z,15
2017-10-29T12:38:46.158Z,15
2017-10-29T12:39:55.492Z,10
2017-10-29T12:41:04.487Z,15
2017-10-29T12:42:13.862Z,15
2017-10-29T12:43:22.605Z,10
2017-10-29T12:44:31.907Z,15
2017-10-29T12:45:40.876Z,15
2017-10-29T12:46:50.539Z,15
2017-10-29T12:47:59.544Z,15
2017-10-29T12:49:09.177Z,10
2017-10-29T12:50:18.483Z,5
2017-10-29T12:51:27.124Z,5
2017-10-29T12:52:36.903Z,5
2017-10-29T12:53:45.570Z,10
2017-10-29T12:54:54.217Z,15
2017-10-29T12:56:02.873Z,25
2017-10-29T12:57:11.861Z,20
2017-10-29T12:58:20.843Z,20
2017-10-29T12:59:29.828Z,20
2017-10-29T13:00:38.488Z,15
2017-10-29T13:01:47.457Z,10
2017-10-29T13:02:56.106Z,10
2017-10-29T13:04:05.243Z,10
2017-10-29T13:05:14.521Z,10
2017-10-29T13:06:23.502Z,10
2017-10-29T13:07:32.910Z,15
2017-10-29T13:08:42.217Z,15
2017-10-29T13:09:51.560Z,10
2017-10-29T13:11:00.540Z,10
2017-10-29T13:12:09.864Z,10
2017-10-29T13:13:18.861Z,10
2017-10-29T13:14:27.512Z,10
2017-10-29T13:15:36.588Z,10
2017-10-29T13:16:45.588Z,10
2017-10-29T13:17:54.914Z,10
2017-10-29T13:19:03.586Z,10
2017-10-29T13:20:12.896Z,10
2017-10-29T13:21:22.273Z,10
2017-10-29T13:22:31.947Z,10
2017-10-29T13:23:41.259Z,15
2017-10-29T13:24:50.255Z,15
2017-10-29T13:25:59.228Z,15
2017-10-29T13:27:08.543Z,15
2017-10-29T13:28:17.529Z,15
2017-10-29T13:29:26.846Z,15
2017-10-29T13:30:36.176Z,15
2017-10-29T13:31:45.159Z,15
2017-10-29T13:32:54.135Z,15
2017-10-29T13:34:03.140Z,10
2017-10-29T13:35:12.796Z,10
2017-10-29T13:36:21.804Z,15
2017-10-29T13:37:31.500Z,15
2017-10-29T13:38:41.074Z,15
2017-10-29T13:39:50.431Z,15
2017-10-29T13:40:59.090Z,15
2017-10-29T13:42:08.751Z,15
2017-10-29T13:43:18.083Z,10
2017-10-29T13:44:27.106Z,15
2017-10-29T13:45:37.158Z,15
2017-10-29T13:46:46.124Z,20
2017-10-29T13:47:55.112Z,20
2017-10-29T13:49:03.769Z,20
2017-10-29T13:50:12.763Z,20
2017-10-29T13:51:22.095Z,20
2017-10-29T13:52:30.799Z,20
2017-10-29T13:53:39.818Z,20
2017-10-29T13:54:48.474Z,15
2017-10-29T13:55:57.452Z,15
2017-10-29T13:57:06.986Z,20
2017-10-29T13:58:16.340Z,20
2017-10-29T13:59:25.973Z,20
2017-10-29T14:00:34.990Z,10
2017-10-29T14:01:43.633Z,10
2017-10-29T14:02:52.654Z,10
2017-10-29T14:04:01.968Z,10
2017-10-29T14:05:10.941Z,10
2017-10-29T14:06:19.936Z,10
2017-10-29T14:07:29.584Z,15
2017-10-29T14:08:38.923Z,15
2017-10-29T14:09:48.278Z,20
2017-10-29T14:10:57.276Z,15
2017-10-29T14:12:06.587Z,15
2017-10-29T14:13:15.665Z,15
2017-10-29T14:14:24.981Z,15
2017-10-29T14:15:33.980Z,20
2017-10-29T14:16:43.294Z,15
2017-10-29T14:17:51.986Z,15
2017-10-29T14:19:01.366Z,15
2017-10-29T14:20:10.334Z,10
2017-10-29T14:21:19.632Z,15
2017-10-29T14:22:28.609Z,10
2017-10-29T14:23:37.574Z,15
2017-10-29T14:24:46.888Z,15
2017-10-29T14:25:55.888Z,10
2017-10-29T14:27:04.516Z,10
2017-10-29T14:28:13.826Z,10
2017-10-29T14:29:23.142Z,10
2017-10-29T14:30:32.859Z,5
2017-10-29T14:31:41.881Z,5
2017-10-29T14:32:51.568Z,10
2017-10-29T14:34:00.517Z,10
2017-10-29T14:35:09.880Z,10
2017-10-29T14:36:18.711Z,10
2017-10-29T14:37:27.647Z,10
2017-10-29T14:38:36.669Z,10
2017-10-29T14:39:45.655Z,10
2017-10-29T14:40:55.173Z,10
2017-10-29T14:42:04.227Z,10
2017-10-29T14:43:13.434Z,10
2017-10-29T14:44:22.402Z,10
2017-10-29T14:45:31.430Z,10
2017-10-29T14:46:40.421Z,5
2017-10-29T14:47:49.440Z,5
2017-10-29T14:48:58.419Z,5
2017-10-29T14:50:07.747Z,5
2017-10-29T14:51:16.738Z,10
2017-10-29T14:52:26.147Z,10
2017-10-29T14:53:34.845Z,10
2017-10-29T14:54:43.531Z,10
2017-10-29T14:55:52.837Z,10
2017-10-29T14:57:02.139Z,10
2017-10-29T14:58:10.778Z,10
2017-10-29T14:59:19.753Z,10
2017-10-29T15:00:29.044Z,10
2017-10-29T15:01:38.022Z,10
2017-10-29T15:02:47.348Z,10
2017-10-29T15:03:56.360Z,10
2017-10-29T15:05:05.036Z,10
2017-10-29T15:06:13.717Z,5
2017-10-29T15:07:22.685Z,5
2017-10-29T15:08:31.983Z,5
2017-10-29T15:09:40.679Z,5
2017-10-29T15:10:49.772Z,5
2017-10-29T15:11:58.450Z,5
2017-10-29T15:13:07.433Z,5
2017-10-29T15:14:16.785Z,5
2017-10-29T15:15:25.810Z,5
2017-10-29T15:16:35.147Z,5
2017-10-29T15:17:44.435Z,5
2017-10-29T15:18:53.435Z,5
2017-10-29T15:20:02.753Z,5
2017-10-29T15:21:12.051Z,5
2017-10-29T15:22:20.816Z,5
2017-10-29T15:23:29.491Z,5
2017-10-29T15:24:38.493Z,5
2017-10-29T15:25:47.808Z,5
2017-10-29T15:26:56.806Z,5
2017-10-29T15:28:06.130Z,5
2017-10-29T15:29:14.822Z,5
2017-10-29T15:30:24.247Z,5
2017-10-29T15:31:33.199Z,0
2017-10-29T15:32:42.774Z,0
2017-10-29T15:33:52.820Z,0
2017-10-29T15:35:02.738Z,0
2017-10-29T15:36:12.510Z,0
2017-10-29T15:37:22.383Z,0
2017-10-29T15:38:32.340Z,0
2017-10-29T15:39:41.822Z,0
2017-10-29T15:40:50.930Z,0
2017-10-29T15:42:00.272Z,0
2017-10-29T15:43:08.936Z,0
2017-10-29T15:44:18.289Z,0
2017-10-29T15:45:26.960Z,0
2017-10-29T15:46:36.073Z,0
2017-10-29T15:47:45.046Z,0
2017-10-29T15:48:54.134Z,0
2017-10-29T15:50:03.535Z,0
2017-10-29T15:51:12.186Z,0
2017-10-29T15:52:21.546Z,0
2017-10-29T15:53:30.193Z,0
2017-10-29T15:54:39.180Z,0
2017-10-29T15:55:48.861Z,0
2017-10-29T15:56:58.169Z,0
2017-10-29T15:58:07.789Z,0
2017-10-29T15:59:17.111Z,0
2017-10-29T16:00:26.562Z,0
2017-10-29T16:01:35.558Z,0
2017-10-29T16:02:44.582Z,0
2017-10-29T16:03:53.908Z,0
2017-10-29T16:05:02.830Z,0
2017-10-29T16:06:12.780Z,0
2017-10-29T16:07:22.376Z,0
2017-10-29T16:08:31.380Z,0
2017-10-29T16:09:40.670Z,0
2017-10-29T16:10:50.293Z,0
2017-10-29T16:11:59.678Z,0
2017-10-29T16:13:08.999Z,0
2017-10-29T16:14:18.024Z,0
2017-10-29T16:15:27.736Z,0
2017-10-29T16:16:36.767Z,0
2017-10-29T16:17:45.508Z,0
2017-10-29T16:19:07.608Z,0
2017-10-29T16:20:17.004Z,0
2017-10-29T16:21:26.035Z,0
2017-10-29T16:22:35.141Z,0
2017-10-29T16:23:43.934Z,0
2017-10-29T16:24:52.672Z,0
2017-10-29T16:26:01.412Z,0
2017-10-29T16:27:11.428Z,0
2017-10-29T16:28:20.650Z,0
2017-10-29T16:29:29.802Z,0
2017-10-29T16:30:38.573Z,0
2017-10-29T16:31:47.919Z,0
2017-10-29T16:32:56.964Z,0
2017-10-29T16:34:06.039Z,0
2017-10-29T16:35:15.110Z,0
2017-10-29T16:36:24.090Z,0
2017-10-29T16:37:33.119Z,0
2017-10-29T16:38:41.788Z,0
2017-10-29T16:39:51.145Z,0
2017-10-29T16:40:59.865Z,0
2017-10-29T16:42:09.084Z,0
2017-10-29T16:43:18.388Z,0
2017-10-29T16:44:28.043Z,0
2017-10-29T16:45:37.062Z,0